sensor_id;sensor_type;location;lat;lon;timestamp;temperature;humidity
70593;DHT22;58294;42.988;20.338;2023-08-12T00:02:10;384.00;2176.00
70593;DHT22;58294;42.988;20.338;2023-08-12T00:04:36;384.00;2176.00
70593;DHT22;58294;42.988;20.338;2023-08-12T00:07:01;359.30;2176.00
70593;DHT22;58294;42.988;20.338;2023-08-12T00:09:27;359.30;2176.00
70593;DHT22;58294;42.988;20.338;2023-08-12T00:11:53;359.20;2201.60
70593;DHT22;58294;42.988;20.338;2023-08-12T00:14:19;359.20;2201.60
70593;DHT22;58294;42.988;20.338;2023-08-12T00:16:45;359.20;2201.60
70593;DHT22;58294;42.988;20.338;2023-08-12T00:19:10;359.20;2227.20
70593;DHT22;58294;42.988;20.338;2023-08-12T00:21:36;359.10;2227.20
70593;DHT22;58294;42.988;20.338;2023-08-12T00:24:02;359.10;2201.60
70593;DHT22;58294;42.988;20.338;2023-08-12T00:26:28;359.10;2252.80
70593;DHT22;58294;42.988;20.338;2023-08-12T00:28:54;359.10;2252.80
70593;DHT22;58294;42.988;20.338;2023-08-12T00:31:20;359.10;2252.80
70593;DHT22;58294;42.988;20.338;2023-08-12T00:33:45;359.10;2252.80
70593;DHT22;58294;42.988;20.338;2023-08-12T00:36:11;359.00;2278.40
70593;DHT22;58294;42.988;20.338;2023-08-12T00:38:37;359.00;2252.80
70593;DHT22;58294;42.988;20.338;2023-08-12T00:41:03;358.90;2252.80
70593;DHT22;58294;42.988;20.338;2023-08-12T00:43:29;358.90;2252.80
70593;DHT22;58294;42.988;20.338;2023-08-12T00:45:55;358.90;2227.20
70593;DHT22;58294;42.988;20.338;2023-08-12T00:48:21;358.80;2227.20
70593;DHT22;58294;42.988;20.338;2023-08-12T00:50:48;358.70;2227.20
70593;DHT22;58294;42.988;20.338;2023-08-12T00:53:15;358.70;2278.40
70593;DHT22;58294;42.988;20.338;2023-08-12T00:55:41;358.70;2278.40
70593;DHT22;58294;42.988;20.338;2023-08-12T00:58:08;358.60;2278.40
70593;DHT22;58294;42.988;20.338;2023-08-12T01:00:34;358.60;2278.40
70593;DHT22;58294;42.988;20.338;2023-08-12T01:03:00;358.60;2304.00
70593;DHT22;58294;42.988;20.338;2023-08-12T01:05:26;358.60;2304.00
70593;DHT22;58294;42.988;20.338;2023-08-12T01:07:52;358.60;2304.00
70593;DHT22;58294;42.988;20.338;2023-08-12T01:10:20;358.50;2304.00
70593;DHT22;58294;42.988;20.338;2023-08-12T01:13:05;358.50;2304.00
70593;DHT22;58294;42.988;20.338;2023-08-12T01:15:32;358.50;2252.80
70593;DHT22;58294;42.988;20.338;2023-08-12T01:18:00;358.40;2278.40
70593;DHT22;58294;42.988;20.338;2023-08-12T01:20:26;333.70;2278.40
70593;DHT22;58294;42.988;20.338;2023-08-12T01:23:18;333.70;2304.00
70593;DHT22;58294;42.988;20.338;2023-08-12T01:25:43;333.70;2304.00
70593;DHT22;58294;42.988;20.338;2023-08-12T01:28:09;333.70;2304.00
70593;DHT22;58294;42.988;20.338;2023-08-12T01:30:39;333.70;2304.00
70593;DHT22;58294;42.988;20.338;2023-08-12T01:33:21;333.60;2304.00
70593;DHT22;58294;42.988;20.338;2023-08-12T01:35:57;333.60;2304.00
70593;DHT22;58294;42.988;20.338;2023-08-12T01:38:26;333.60;2329.60
70593;DHT22;58294;42.988;20.338;2023-08-12T01:40:54;333.50;2329.60
70593;DHT22;58294;42.988;20.338;2023-08-12T01:43:20;333.50;2329.60
70593;DHT22;58294;42.988;20.338;2023-08-12T01:45:46;333.50;2329.60
70593;DHT22;58294;42.988;20.338;2023-08-12T01:48:12;333.50;2329.60
70593;DHT22;58294;42.988;20.338;2023-08-12T01:50:38;333.50;2329.60
70593;DHT22;58294;42.988;20.338;2023-08-12T01:53:03;333.50;2329.60
70593;DHT22;58294;42.988;20.338;2023-08-12T01:55:30;333.40;2329.60
70593;DHT22;58294;42.988;20.338;2023-08-12T01:57:55;333.40;2329.60
70593;DHT22;58294;42.988;20.338;2023-08-12T02:00:22;333.40;2329.60
70593;DHT22;58294;42.988;20.338;2023-08-12T02:02:48;333.30;2329.60
70593;DHT22;58294;42.988;20.338;2023-08-12T02:05:14;333.30;2329.60
70593;DHT22;58294;42.988;20.338;2023-08-12T02:07:40;333.30;2329.60
70593;DHT22;58294;42.988;20.338;2023-08-12T02:10:06;333.30;2329.60
70593;DHT22;58294;42.988;20.338;2023-08-12T02:12:32;333.20;2329.60
70593;DHT22;58294;42.988;20.338;2023-08-12T02:14:58;333.20;2329.60
70593;DHT22;58294;42.988;20.338;2023-08-12T02:17:24;333.20;2329.60
70593;DHT22;58294;42.988;20.338;2023-08-12T02:19:49;333.10;2329.60
70593;DHT22;58294;42.988;20.338;2023-08-12T02:22:15;333.10;2329.60
70593;DHT22;58294;42.988;20.338;2023-08-12T02:24:41;333.00;2329.60
70593;DHT22;58294;42.988;20.338;2023-08-12T02:27:07;333.00;2329.60
70593;DHT22;58294;42.988;20.338;2023-08-12T02:29:32;333.00;2329.60
70593;DHT22;58294;42.988;20.338;2023-08-12T02:31:58;333.00;2329.60
70593;DHT22;58294;42.988;20.338;2023-08-12T02:34:24;333.00;2329.60
70593;DHT22;58294;42.988;20.338;2023-08-12T02:36:50;332.90;2329.60
70593;DHT22;58294;42.988;20.338;2023-08-12T02:39:16;332.90;2329.60
70593;DHT22;58294;42.988;20.338;2023-08-12T02:41:42;332.90;2329.60
70593;DHT22;58294;42.988;20.338;2023-08-12T02:44:08;332.80;2329.60
70593;DHT22;58294;42.988;20.338;2023-08-12T02:46:34;332.80;2329.60
70593;DHT22;58294;42.988;20.338;2023-08-12T02:48:59;332.80;2329.60
70593;DHT22;58294;42.988;20.338;2023-08-12T02:51:25;332.80;2329.60
70593;DHT22;58294;42.988;20.338;2023-08-12T02:53:51;332.80;2329.60
70593;DHT22;58294;42.988;20.338;2023-08-12T02:56:17;308.10;2304.00
70593;DHT22;58294;42.988;20.338;2023-08-12T02:58:42;308.10;2304.00
70593;DHT22;58294;42.988;20.338;2023-08-12T03:01:08;308.00;2304.00
70593;DHT22;58294;42.988;20.338;2023-08-12T03:03:34;307.90;2304.00
70593;DHT22;58294;42.988;20.338;2023-08-12T03:06:00;307.90;2304.00
70593;DHT22;58294;42.988;20.338;2023-08-12T03:08:26;307.90;2304.00
70593;DHT22;58294;42.988;20.338;2023-08-12T03:11:00;307.90;2304.00
70593;DHT22;58294;42.988;20.338;2023-08-12T03:13:27;307.80;2304.00
70593;DHT22;58294;42.988;20.338;2023-08-12T03:15:53;307.80;2304.00
70593;DHT22;58294;42.988;20.338;2023-08-12T03:18:18;307.70;2304.00
70593;DHT22;58294;42.988;20.338;2023-08-12T03:20:44;307.70;2304.00
70593;DHT22;58294;42.988;20.338;2023-08-12T03:23:10;307.70;2304.00
70593;DHT22;58294;42.988;20.338;2023-08-12T03:25:36;307.70;2304.00
70593;DHT22;58294;42.988;20.338;2023-08-12T03:28:02;307.60;2304.00
70593;DHT22;58294;42.988;20.338;2023-08-12T03:30:27;307.60;2304.00
70593;DHT22;58294;42.988;20.338;2023-08-12T03:32:53;307.60;2304.00
70593;DHT22;58294;42.988;20.338;2023-08-12T03:35:19;307.50;2304.00
70593;DHT22;58294;42.988;20.338;2023-08-12T03:37:45;307.50;2304.00
70593;DHT22;58294;42.988;20.338;2023-08-12T03:40:11;307.60;2304.00
70593;DHT22;58294;42.988;20.338;2023-08-12T03:42:37;307.60;2304.00
70593;DHT22;58294;42.988;20.338;2023-08-12T03:45:02;307.50;2304.00
70593;DHT22;58294;42.988;20.338;2023-08-12T03:47:28;307.50;2304.00
70593;DHT22;58294;42.988;20.338;2023-08-12T03:49:54;307.50;2304.00
70593;DHT22;58294;42.988;20.338;2023-08-12T03:52:20;307.40;2304.00
70593;DHT22;58294;42.988;20.338;2023-08-12T03:54:46;307.40;2304.00
70593;DHT22;58294;42.988;20.338;2023-08-12T03:57:12;307.40;2304.00
70593;DHT22;58294;42.988;20.338;2023-08-12T03:59:37;307.40;2304.00
70593;DHT22;58294;42.988;20.338;2023-08-12T04:02:03;307.40;2304.00
70593;DHT22;58294;42.988;20.338;2023-08-12T04:04:29;307.30;2304.00
70593;DHT22;58294;42.988;20.338;2023-08-12T04:06:55;307.30;2304.00
70593;DHT22;58294;42.988;20.338;2023-08-12T04:09:21;307.40;2304.00
70593;DHT22;58294;42.988;20.338;2023-08-12T04:11:47;307.40;2304.00
70593;DHT22;58294;42.988;20.338;2023-08-12T04:14:15;307.40;2304.00
70593;DHT22;58294;42.988;20.338;2023-08-12T04:16:41;307.50;2304.00
70593;DHT22;58294;42.988;20.338;2023-08-12T04:19:07;307.40;2304.00
70593;DHT22;58294;42.988;20.338;2023-08-12T04:21:33;307.40;2304.00
70593;DHT22;58294;42.988;20.338;2023-08-12T04:23:59;307.40;2304.00
70593;DHT22;58294;42.988;20.338;2023-08-12T04:26:25;307.50;2304.00
70593;DHT22;58294;42.988;20.338;2023-08-12T04:28:50;307.60;2304.00
70593;DHT22;58294;42.988;20.338;2023-08-12T04:31:16;307.70;2304.00
70593;DHT22;58294;42.988;20.338;2023-08-12T04:33:42;307.70;2304.00
70593;DHT22;58294;42.988;20.338;2023-08-12T04:36:08;307.80;2304.00
70593;DHT22;58294;42.988;20.338;2023-08-12T04:38:34;307.80;2304.00
70593;DHT22;58294;42.988;20.338;2023-08-12T04:41:00;307.90;2304.00
70593;DHT22;58294;42.988;20.338;2023-08-12T04:43:26;307.90;2304.00
70593;DHT22;58294;42.988;20.338;2023-08-12T04:45:52;308.00;2304.00
70593;DHT22;58294;42.988;20.338;2023-08-12T04:48:18;308.10;2304.00
70593;DHT22;58294;42.988;20.338;2023-08-12T04:50:44;332.80;2329.60
70593;DHT22;58294;42.988;20.338;2023-08-12T04:53:10;332.80;2329.60
70593;DHT22;58294;42.988;20.338;2023-08-12T04:55:36;333.00;2329.60
70593;DHT22;58294;42.988;20.338;2023-08-12T04:58:02;333.00;2329.60
70593;DHT22;58294;42.988;20.338;2023-08-12T05:00:28;333.10;2329.60
70593;DHT22;58294;42.988;20.338;2023-08-12T05:02:54;333.20;2329.60
70593;DHT22;58294;42.988;20.338;2023-08-12T05:05:20;333.20;2329.60
70593;DHT22;58294;42.988;20.338;2023-08-12T05:07:46;333.30;2329.60
70593;DHT22;58294;42.988;20.338;2023-08-12T05:10:17;333.40;2329.60
70593;DHT22;58294;42.988;20.338;2023-08-12T05:12:44;333.40;2329.60
70593;DHT22;58294;42.988;20.338;2023-08-12T05:15:12;333.50;2329.60
70593;DHT22;58294;42.988;20.338;2023-08-12T05:17:38;333.60;2329.60
70593;DHT22;58294;42.988;20.338;2023-08-12T05:20:05;333.70;2329.60
70593;DHT22;58294;42.988;20.338;2023-08-12T05:22:31;333.70;2329.60
70593;DHT22;58294;42.988;20.338;2023-08-12T05:24:57;358.40;2329.60
70593;DHT22;58294;42.988;20.338;2023-08-12T05:27:22;358.50;2329.60
70593;DHT22;58294;42.988;20.338;2023-08-12T05:29:48;358.50;2329.60
70593;DHT22;58294;42.988;20.338;2023-08-12T05:32:14;358.50;2329.60
70593;DHT22;58294;42.988;20.338;2023-08-12T05:34:40;358.60;2329.60
70593;DHT22;58294;42.988;20.338;2023-08-12T05:37:05;358.70;2329.60
70593;DHT22;58294;42.988;20.338;2023-08-12T05:39:31;358.80;2329.60
70593;DHT22;58294;42.988;20.338;2023-08-12T05:41:57;358.90;2329.60
70593;DHT22;58294;42.988;20.338;2023-08-12T05:44:23;358.90;2329.60
70593;DHT22;58294;42.988;20.338;2023-08-12T05:46:49;358.90;2329.60
70593;DHT22;58294;42.988;20.338;2023-08-12T05:49:14;359.00;2329.60
70593;DHT22;58294;42.988;20.338;2023-08-12T05:51:40;359.00;2329.60
70593;DHT22;58294;42.988;20.338;2023-08-12T05:54:07;359.00;2329.60
70593;DHT22;58294;42.988;20.338;2023-08-12T05:56:33;359.00;2329.60
70593;DHT22;58294;42.988;20.338;2023-08-12T05:58:58;359.10;2329.60
70593;DHT22;58294;42.988;20.338;2023-08-12T06:01:24;359.20;2329.60
70593;DHT22;58294;42.988;20.338;2023-08-12T06:03:50;359.20;2329.60
70593;DHT22;58294;42.988;20.338;2023-08-12T06:06:16;359.20;2304.00
70593;DHT22;58294;42.988;20.338;2023-08-12T06:08:42;359.20;2304.00
70593;DHT22;58294;42.988;20.338;2023-08-12T06:11:08;359.20;2329.60
70593;DHT22;58294;42.988;20.338;2023-08-12T06:13:34;359.30;2304.00
70593;DHT22;58294;42.988;20.338;2023-08-12T06:16:00;359.30;2329.60
70593;DHT22;58294;42.988;20.338;2023-08-12T06:18:26;359.30;2329.60
70593;DHT22;58294;42.988;20.338;2023-08-12T06:20:52;359.30;2329.60
70593;DHT22;58294;42.988;20.338;2023-08-12T06:23:17;384.00;2329.60
70593;DHT22;58294;42.988;20.338;2023-08-12T06:25:43;359.30;2329.60
70593;DHT22;58294;42.988;20.338;2023-08-12T06:28:09;384.00;2329.60
70593;DHT22;58294;42.988;20.338;2023-08-12T06:30:36;384.00;2329.60
70593;DHT22;58294;42.988;20.338;2023-08-12T06:33:01;384.00;2329.60
70593;DHT22;58294;42.988;20.338;2023-08-12T06:35:27;384.10;2329.60
70593;DHT22;58294;42.988;20.338;2023-08-12T06:37:53;384.10;2329.60
70593;DHT22;58294;42.988;20.338;2023-08-12T06:40:19;384.20;2329.60
70593;DHT22;58294;42.988;20.338;2023-08-12T06:42:45;384.30;2329.60
70593;DHT22;58294;42.988;20.338;2023-08-12T06:45:11;384.40;2329.60
70593;DHT22;58294;42.988;20.338;2023-08-12T06:47:37;384.40;2329.60
70593;DHT22;58294;42.988;20.338;2023-08-12T06:50:03;384.50;2329.60
70593;DHT22;58294;42.988;20.338;2023-08-12T06:52:28;384.60;2329.60
70593;DHT22;58294;42.988;20.338;2023-08-12T06:54:54;384.60;2329.60
70593;DHT22;58294;42.988;20.338;2023-08-12T06:57:20;384.70;2329.60
70593;DHT22;58294;42.988;20.338;2023-08-12T06:59:46;384.80;2329.60
70593;DHT22;58294;42.988;20.338;2023-08-12T07:02:12;384.90;2329.60
70593;DHT22;58294;42.988;20.338;2023-08-12T07:04:38;409.70;2355.20
70593;DHT22;58294;42.988;20.338;2023-08-12T07:07:03;409.80;2355.20
70593;DHT22;58294;42.988;20.338;2023-08-12T07:09:29;409.90;2355.20
70593;DHT22;58294;42.988;20.338;2023-08-12T07:11:55;410.00;2355.20
70593;DHT22;58294;42.988;20.338;2023-08-12T07:14:21;410.10;2355.20
70593;DHT22;58294;42.988;20.338;2023-08-12T07:16:47;410.30;2355.20
70593;DHT22;58294;42.988;20.338;2023-08-12T07:19:13;410.40;2355.20
70593;DHT22;58294;42.988;20.338;2023-08-12T07:21:42;435.20;2355.20
70593;DHT22;58294;42.988;20.338;2023-08-12T07:24:10;435.30;2355.20
70593;DHT22;58294;42.988;20.338;2023-08-12T07:26:36;435.40;2355.20
70593;DHT22;58294;42.988;20.338;2023-08-12T07:29:02;435.50;2355.20
70593;DHT22;58294;42.988;20.338;2023-08-12T07:31:27;435.70;2355.20
70593;DHT22;58294;42.988;20.338;2023-08-12T07:33:53;435.70;2329.60
70593;DHT22;58294;42.988;20.338;2023-08-12T07:36:19;435.80;2329.60
70593;DHT22;58294;42.988;20.338;2023-08-12T07:38:45;436.00;2329.60
70593;DHT22;58294;42.988;20.338;2023-08-12T07:41:11;436.00;2355.20
70593;DHT22;58294;42.988;20.338;2023-08-12T07:43:36;436.10;2278.40
70593;DHT22;58294;42.988;20.338;2023-08-12T07:46:02;460.80;2304.00
70593;DHT22;58294;42.988;20.338;2023-08-12T07:48:28;460.90;2329.60
70593;DHT22;58294;42.988;20.338;2023-08-12T07:50:58;461.00;2278.40
70593;DHT22;58294;42.988;20.338;2023-08-12T07:53:24;461.10;2278.40
70593;DHT22;58294;42.988;20.338;2023-08-12T07:55:51;461.30;2176.00
70593;DHT22;58294;42.988;20.338;2023-08-12T07:58:16;461.40;2201.60
70593;DHT22;58294;42.988;20.338;2023-08-12T08:00:42;461.60;2227.20
70593;DHT22;58294;42.988;20.338;2023-08-12T08:03:08;486.40;2201.60
70593;DHT22;58294;42.988;20.338;2023-08-12T08:05:34;486.50;2176.00
70593;DHT22;58294;42.988;20.338;2023-08-12T08:08:00;486.70;2150.40
70593;DHT22;58294;42.988;20.338;2023-08-12T08:10:26;486.80;2099.20
70593;DHT22;58294;42.988;20.338;2023-08-12T08:12:52;487.00;2073.60
70593;DHT22;58294;42.988;20.338;2023-08-12T08:15:17;487.20;2022.40
70593;DHT22;58294;42.988;20.338;2023-08-12T08:17:43;512.00;1996.80
70593;DHT22;58294;42.988;20.338;2023-08-12T08:20:09;512.10;1996.80
70593;DHT22;58294;42.988;20.338;2023-08-12T08:22:36;512.20;1971.20
70593;DHT22;58294;42.988;20.338;2023-08-12T08:25:02;512.40;1920.00
70593;DHT22;58294;42.988;20.338;2023-08-12T08:27:28;512.60;1894.40
70593;DHT22;58294;42.988;20.338;2023-08-12T08:29:54;512.80;1868.80
70593;DHT22;58294;42.988;20.338;2023-08-12T08:32:19;512.90;1792.00
70593;DHT22;58294;42.988;20.338;2023-08-12T08:34:45;537.60;1817.60
70593;DHT22;58294;42.988;20.338;2023-08-12T08:37:11;537.70;1766.40
70593;DHT22;58294;42.988;20.338;2023-08-12T08:39:37;537.70;1766.40
70593;DHT22;58294;42.988;20.338;2023-08-12T08:42:05;537.80;1715.20
70593;DHT22;58294;42.988;20.338;2023-08-12T08:44:33;538.00;1715.20
70593;DHT22;58294;42.988;20.338;2023-08-12T08:46:59;538.10;1689.60
70593;DHT22;58294;42.988;20.338;2023-08-12T08:49:26;538.20;1664.00
70593;DHT22;58294;42.988;20.338;2023-08-12T08:51:53;538.30;1689.60
70593;DHT22;58294;42.988;20.338;2023-08-12T08:54:20;538.40;1536.00
70593;DHT22;58294;42.988;20.338;2023-08-12T08:59:14;563.40;1766.40
70593;DHT22;58294;42.988;20.338;2023-08-12T09:01:40;563.30;1612.80
70593;DHT22;58294;42.988;20.338;2023-08-12T09:04:07;563.40;1587.20
70593;DHT22;58294;42.988;20.338;2023-08-12T09:06:35;563.50;1459.20
70593;DHT22;58294;42.988;20.338;2023-08-12T09:09:02;563.60;1484.80
70593;DHT22;58294;42.988;20.338;2023-08-12T09:11:31;563.80;1510.40
70593;DHT22;58294;42.988;20.338;2023-08-12T09:13:58;563.80;1484.80
70593;DHT22;58294;42.988;20.338;2023-08-12T09:16:24;563.90;1484.80
70593;DHT22;58294;42.988;20.338;2023-08-12T09:18:55;564.00;1510.40
70593;DHT22;58294;42.988;20.338;2023-08-12T09:21:21;564.10;1510.40
70593;DHT22;58294;42.988;20.338;2023-08-12T09:23:47;588.80;1459.20
70593;DHT22;58294;42.988;20.338;2023-08-12T09:26:18;588.80;1408.00
70593;DHT22;58294;42.988;20.338;2023-08-12T09:28:45;588.80;1408.00
70593;DHT22;58294;42.988;20.338;2023-08-12T09:31:26;588.90;1408.00
70593;DHT22;58294;42.988;20.338;2023-08-12T09:33:52;589.00;1408.00
70593;DHT22;58294;42.988;20.338;2023-08-12T09:36:19;589.00;1356.80
70593;DHT22;58294;42.988;20.338;2023-08-12T09:38:46;589.00;1382.40
70593;DHT22;58294;42.988;20.338;2023-08-12T09:41:12;589.10;1356.80
70593;DHT22;58294;42.988;20.338;2023-08-12T09:43:44;589.20;1382.40
70593;DHT22;58294;42.988;20.338;2023-08-12T09:46:11;589.40;1433.60
70593;DHT22;58294;42.988;20.338;2023-08-12T09:48:40;589.40;1382.40
70593;DHT22;58294;42.988;20.338;2023-08-12T09:51:07;589.40;1612.80
70593;DHT22;58294;42.988;20.338;2023-08-12T09:53:34;589.50;1305.60
70593;DHT22;58294;42.988;20.338;2023-08-12T09:56:07;589.50;1305.60
70593;DHT22;58294;42.988;20.338;2023-08-12T09:58:35;589.50;1305.60
70593;DHT22;58294;42.988;20.338;2023-08-12T10:01:03;589.60;1280.00
70593;DHT22;58294;42.988;20.338;2023-08-12T10:03:31;589.60;1228.80
70593;DHT22;58294;42.988;20.338;2023-08-12T10:05:59;589.60;1203.20
70593;DHT22;58294;42.988;20.338;2023-08-12T10:08:27;589.70;1280.00
70593;DHT22;58294;42.988;20.338;2023-08-12T10:10:53;589.70;1228.80
70593;DHT22;58294;42.988;20.338;2023-08-12T10:13:21;589.70;1228.80
70593;DHT22;58294;42.988;20.338;2023-08-12T10:15:47;589.70;1280.00
70593;DHT22;58294;42.988;20.338;2023-08-12T10:18:13;614.40;1177.60
70593;DHT22;58294;42.988;20.338;2023-08-12T10:20:40;614.40;1152.00
70593;DHT22;58294;42.988;20.338;2023-08-12T10:23:07;614.40;1228.80
70593;DHT22;58294;42.988;20.338;2023-08-12T10:25:37;614.50;1203.20
70593;DHT22;58294;42.988;20.338;2023-08-12T10:28:06;614.50;1228.80
70593;DHT22;58294;42.988;20.338;2023-08-12T10:30:34;615.10;1484.80
70593;DHT22;58294;42.988;20.338;2023-08-12T10:33:00;666.00;2201.60
70593;DHT22;58294;42.988;20.338;2023-08-12T10:35:46;716.90;1817.60
70593;DHT22;58294;42.988;20.338;2023-08-12T10:38:20;742.90;1664.00
70593;DHT22;58294;42.988;20.338;2023-08-12T10:40:47;793.70;1408.00
70593;DHT22;58294;42.988;20.338;2023-08-12T10:43:13;819.50;1100.80
70593;DHT22;58294;42.988;20.338;2023-08-12T10:48:23;845.50;998.40
70593;DHT22;58294;42.988;20.338;2023-08-12T10:50:53;871.00;972.80
70593;DHT22;58294;42.988;20.338;2023-08-12T10:55:57;896.50;844.80
70593;DHT22;58294;42.988;20.338;2023-08-12T11:15:40;922.20;665.60
70593;DHT22;58294;42.988;20.338;2023-08-12T11:20:40;896.90;640.00
70593;DHT22;58294;42.988;20.338;2023-08-12T11:25:34;921.60;793.60
70593;DHT22;58294;42.988;20.338;2023-08-12T11:28:00;922.30;742.40
70593;DHT22;58294;42.988;20.338;2023-08-12T11:30:27;922.50;665.60
70593;DHT22;58294;42.988;20.338;2023-08-12T11:35:21;947.30;665.60
70593;DHT22;58294;42.988;20.338;2023-08-12T11:40:16;972.80;691.20
70593;DHT22;58294;42.988;20.338;2023-08-12T11:42:44;972.80;665.60
70593;DHT22;58294;42.988;20.338;2023-08-12T11:50:07;998.50;665.60
70593;DHT22;58294;42.988;20.338;2023-08-12T11:55:00;973.60;563.20
70593;DHT22;58294;42.988;20.338;2023-08-12T11:57:26;973.50;614.40
70593;DHT22;58294;42.988;20.338;2023-08-12T12:00:06;972.90;614.40
70593;DHT22;58294;42.988;20.338;2023-08-12T12:02:52;973.30;640.00
70593;DHT22;58294;42.988;20.338;2023-08-12T12:05:22;973.20;614.40
70593;DHT22;58294;42.988;20.338;2023-08-12T12:07:48;973.10;588.80
70593;DHT22;58294;42.988;20.338;2023-08-12T12:12:45;998.50;640.00
70593;DHT22;58294;42.988;20.338;2023-08-12T12:15:13;973.50;614.40
70593;DHT22;58294;42.988;20.338;2023-08-12T12:17:40;973.50;614.40
70593;DHT22;58294;42.988;20.338;2023-08-12T12:22:36;998.80;614.40
70593;DHT22;58294;42.988;20.338;2023-08-12T12:25:07;973.60;588.80
70593;DHT22;58294;42.988;20.338;2023-08-12T12:27:33;973.60;588.80
70593;DHT22;58294;42.988;20.338;2023-08-12T12:30:00;998.40;614.40
70593;DHT22;58294;42.988;20.338;2023-08-12T12:32:25;998.40;640.00
70593;DHT22;58294;42.988;20.338;2023-08-12T12:34:52;972.80;563.20
70593;DHT22;58294;42.988;20.338;2023-08-12T12:37:18;973.10;640.00
70593;DHT22;58294;42.988;20.338;2023-08-12T12:39:44;973.50;614.40
70593;DHT22;58294;42.988;20.338;2023-08-12T12:42:11;973.70;588.80
70593;DHT22;58294;42.988;20.338;2023-08-12T12:44:38;973.50;563.20
70593;DHT22;58294;42.988;20.338;2023-08-12T12:47:05;998.40;588.80
70593;DHT22;58294;42.988;20.338;2023-08-12T12:51:57;947.20;563.20
70593;DHT22;58294;42.988;20.338;2023-08-12T12:59:15;896.60;793.60
70593;DHT22;58294;42.988;20.338;2023-08-12T13:01:41;921.60;665.60
70593;DHT22;58294;42.988;20.338;2023-08-12T13:06:34;896.20;614.40
70593;DHT22;58294;42.988;20.338;2023-08-12T13:09:00;870.80;614.40
70593;DHT22;58294;42.988;20.338;2023-08-12T13:11:26;845.50;640.00
70593;DHT22;58294;42.988;20.338;2023-08-12T13:13:52;844.80;691.20
70593;DHT22;58294;42.988;20.338;2023-08-12T13:16:19;819.90;691.20
70593;DHT22;58294;42.988;20.338;2023-08-12T13:18:46;819.50;691.20
70593;DHT22;58294;42.988;20.338;2023-08-12T13:21:12;794.50;742.40
70593;DHT22;58294;42.988;20.338;2023-08-12T13:23:38;794.20;742.40
70593;DHT22;58294;42.988;20.338;2023-08-12T13:28:30;768.80;768.00
70593;DHT22;58294;42.988;20.338;2023-08-12T13:30:56;768.50;768.00
70593;DHT22;58294;42.988;20.338;2023-08-12T13:33:22;768.40;793.60
70593;DHT22;58294;42.988;20.338;2023-08-12T13:35:48;768.40;793.60
70593;DHT22;58294;42.988;20.338;2023-08-12T13:38:13;768.00;819.20
70593;DHT22;58294;42.988;20.338;2023-08-12T13:40:39;743.20;819.20
70593;DHT22;58294;42.988;20.338;2023-08-12T13:43:05;743.10;819.20
70593;DHT22;58294;42.988;20.338;2023-08-12T13:45:31;742.90;844.80
70593;DHT22;58294;42.988;20.338;2023-08-12T13:47:57;742.80;844.80
70593;DHT22;58294;42.988;20.338;2023-08-12T13:50:22;742.70;870.40
70593;DHT22;58294;42.988;20.338;2023-08-12T13:52:48;742.70;870.40
70593;DHT22;58294;42.988;20.338;2023-08-12T13:55:16;742.70;870.40
70593;DHT22;58294;42.988;20.338;2023-08-12T13:57:42;742.60;844.80
70593;DHT22;58294;42.988;20.338;2023-08-12T14:00:08;742.50;870.40
70593;DHT22;58294;42.988;20.338;2023-08-12T14:02:39;742.40;844.80
70593;DHT22;58294;42.988;20.338;2023-08-12T14:05:06;717.60;819.20
70593;DHT22;58294;42.988;20.338;2023-08-12T14:07:32;717.40;819.20
70593;DHT22;58294;42.988;20.338;2023-08-12T14:10:00;717.20;819.20
70593;DHT22;58294;42.988;20.338;2023-08-12T14:12:26;717.10;870.40
70593;DHT22;58294;42.988;20.338;2023-08-12T14:14:52;717.00;870.40
70593;DHT22;58294;42.988;20.338;2023-08-12T14:17:18;716.90;870.40
70593;DHT22;58294;42.988;20.338;2023-08-12T14:19:49;692.10;896.00
70593;DHT22;58294;42.988;20.338;2023-08-12T14:22:15;692.00;870.40
70593;DHT22;58294;42.988;20.338;2023-08-12T14:24:40;691.90;896.00
70593;DHT22;58294;42.988;20.338;2023-08-12T14:27:06;691.80;870.40
70593;DHT22;58294;42.988;20.338;2023-08-12T14:29:32;691.50;870.40
70593;DHT22;58294;42.988;20.338;2023-08-12T14:31:58;691.50;896.00
70593;DHT22;58294;42.988;20.338;2023-08-12T14:34:24;691.50;896.00
70593;DHT22;58294;42.988;20.338;2023-08-12T14:36:50;691.50;896.00
70593;DHT22;58294;42.988;20.338;2023-08-12T14:39:15;691.40;921.60
70593;DHT22;58294;42.988;20.338;2023-08-12T14:41:41;691.30;947.20
70593;DHT22;58294;42.988;20.338;2023-08-12T14:44:07;691.30;947.20
70593;DHT22;58294;42.988;20.338;2023-08-12T14:46:33;691.20;921.60
70593;DHT22;58294;42.988;20.338;2023-08-12T14:48:59;666.50;921.60
70593;DHT22;58294;42.988;20.338;2023-08-12T14:51:25;666.50;921.60
70593;DHT22;58294;42.988;20.338;2023-08-12T14:53:52;666.50;947.20
70593;DHT22;58294;42.988;20.338;2023-08-12T14:56:18;666.50;947.20
70593;DHT22;58294;42.988;20.338;2023-08-12T14:58:44;666.40;947.20
70593;DHT22;58294;42.988;20.338;2023-08-12T15:01:10;666.40;947.20
70593;DHT22;58294;42.988;20.338;2023-08-12T15:03:36;666.30;972.80
70593;DHT22;58294;42.988;20.338;2023-08-12T15:06:03;666.10;972.80
70593;DHT22;58294;42.988;20.338;2023-08-12T15:08:33;666.10;972.80
70593;DHT22;58294;42.988;20.338;2023-08-12T15:10:59;666.10;972.80
70593;DHT22;58294;42.988;20.338;2023-08-12T15:13:25;666.00;972.80
70593;DHT22;58294;42.988;20.338;2023-08-12T15:15:51;666.10;998.40
70593;DHT22;58294;42.988;20.338;2023-08-12T15:18:17;666.10;998.40
70593;DHT22;58294;42.988;20.338;2023-08-12T15:20:44;666.30;998.40
70593;DHT22;58294;42.988;20.338;2023-08-12T15:23:10;666.30;998.40
70593;DHT22;58294;42.988;20.338;2023-08-12T15:25:36;666.30;998.40
70593;DHT22;58294;42.988;20.338;2023-08-12T15:28:02;666.30;972.80
70593;DHT22;58294;42.988;20.338;2023-08-12T15:30:29;666.10;998.40
70593;DHT22;58294;42.988;20.338;2023-08-12T15:32:55;666.00;972.80
70593;DHT22;58294;42.988;20.338;2023-08-12T15:35:21;665.80;998.40